^^
Datos históricos de la estación: Murcia-Puente Tocinos
Diario Informe para Octubre 3, 2019 Unidades:  Métrico    Ingés   Ambas
Diario Semanal Mensual Anual
  Máxima: Mínima: Promedio:
Temperatura: 31 °C 18.7 °C 23.6 °C
Punto de rocio: 17.6 °C 7.3 °C 10.7 °C
Humedad: 78% 23% 47%
Velocidad viento: 16.1km/h 0km/h 7.3km/h
Racha viento: 32.2km/h - -
Viento- - SO
Presión: 1016.7 hPa 1012.9 hPa -
Precipitación: 0.0 mm    
 
 
Tabla de datos para Octubre 3, 2019
Hora Temperatura Punto de rocio Presión Viento Velocidad viento Racha viento Humedad Intensidad lluvia(por hora) Nubes
00:04 21.9 °C 17.5 °C 1015.3 hPa OSO 2.2 km/h 5.8 km/h 76% 0.0 mm
00:09 21.8 °C 17.6 °C 1015.3 hPa OSO 2.3 km/h 6.4 km/h 76.7% 0.0 mm
00:14 21.8 °C 17.6 °C 1015.3 hPa SO 2.9 km/h 6.4 km/h 77% 0.0 mm
00:19 21.8 °C 17.6 °C 1015.3 hPa SO 2.6 km/h 3.7 km/h 77% 0.0 mm
00:24 21.8 °C 17.6 °C 1015.3 hPa Calm   3.7 km/h 77% 0.0 mm
00:29 21.7 °C 17.3 °C 1015.3 hPa Calm   4.7 km/h 76.3% 0.0 mm
00:34 21.7 °C 17 °C 1015.3 hPa Calm   4.8 km/h 74.6% 0.0 mm
00:39 21.6 °C 17.1 °C 1015.2 hPa Sur 0.3 km/h 3.9 km/h 75.4% 0.0 mm
00:44 21.5 °C 16.1 °C 1015.2 hPa Sur 2.2 km/h 8.4 km/h 71.5% 0.0 mm
00:49 21.4 °C 15.5 °C 1015.3 hPa Sur 2.3 km/h 8 km/h 69% 0.0 mm
00:54 21.4 °C 15.7 °C 1015.3 hPa SSO 3.2 km/h 8 km/h 70% 0.0 mm
00:59 21.4 °C 16.5 °C 1015.3 hPa NNE 3.2 km/h 6.4 km/h 73.6% 0.0 mm
01:04 21.3 °C 16.5 °C 1015.3 hPa NNE 3.2 km/h 6.4 km/h 74% 0.0 mm
01:09 21.2 °C 16.8 °C 1015.2 hPa NO 3.2 km/h 5.6 km/h 75.9% 0.0 mm
01:14 21.1 °C 17 °C 1015.2 hPa NO 2.9 km/h 5.8 km/h 77.5% 0.0 mm
01:19 21.1 °C 17.1 °C 1015.2 hPa NE 2.9 km/h 6.4 km/h 78% 0.0 mm
01:24 21 °C 17 °C 1015.2 hPa Este 2.9 km/h 5.6 km/h 77.9% 0.0 mm
01:29 20.8 °C 16.2 °C 1015.2 hPa Sur 2.9 km/h 5 km/h 74.7% 0.0 mm
01:34 20.8 °C 15.8 °C 1015.2 hPa Sur 2.9 km/h 5.8 km/h 73% 0.0 mm
01:39 20.7 °C 14.3 °C 1015.1 hPa Sur 3.1 km/h 8.4 km/h 66.9% 0.0 mm
01:44 20.7 °C 14.1 °C 1015.1 hPa Sur 4.7 km/h 9.5 km/h 66% 0.0 mm
01:49 20.7 °C 14 °C 1015.1 hPa SSO 4.9 km/h 11.1 km/h 65.6% 0.0 mm
01:54 20.8 °C 13.9 °C 1015.0 hPa SSO 6.9 km/h 11.3 km/h 64.6% 0.0 mm
01:59 20.8 °C 13.4 °C 1015.0 hPa SSE 6.9 km/h 11.9 km/h 62.6% 0.0 mm
02:04 20.7 °C 12.9 °C 1015.0 hPa SSE 6.9 km/h 13 km/h 61% 0.0 mm
02:09 20.4 °C 12.4 °C 1015.0 hPa SSE 7.1 km/h 14.8 km/h 60.2% 0.0 mm
02:14 20.2 °C 12.2 °C 1015.0 hPa SSE 8.7 km/h 14.8 km/h 60% 0.0 mm
02:19 20.1 °C 12.1 °C 1015.1 hPa Sur 8.6 km/h 14.5 km/h 60% 0.0 mm
02:24 20.1 °C 11.7 °C 1015.1 hPa SSO 7.6 km/h 11.3 km/h 58.6% 0.0 mm
02:29 20.2 °C 11.6 °C 1015.1 hPa SSO 7.5 km/h 11.3 km/h 58% 0.0 mm
02:34 20.3 °C 11.7 °C 1015.1 hPa SSO 6.9 km/h 9.7 km/h 58% 0.0 mm
02:39 20.3 °C 11.8 °C 1015.1 hPa SSO 6.7 km/h 9.3 km/h 58% 0.0 mm
02:44 20.4 °C 11.9 °C 1015.1 hPa SO 5 km/h 10 km/h 58.3% 0.0 mm
02:49 20.4 °C 12 °C 1015.1 hPa OSO 5 km/h 9.7 km/h 58.3% 0.0 mm
02:54 20.4 °C 11.9 °C 1015.1 hPa OSO 5 km/h 9.7 km/h 58% 0.0 mm
02:59 20.4 °C 11.5 °C 1015.1 hPa SO 5.1 km/h 9.7 km/h 56.7% 0.0 mm
03:04 20.4 °C 11 °C 1015.1 hPa SSO 5.8 km/h 9.7 km/h 54.8% 0.0 mm
03:09 20.4 °C 10.6 °C 1015.0 hPa SSO 5.9 km/h 11.9 km/h 53.2% 0.0 mm
03:14 20.5 °C 10.3 °C 1015.0 hPa SSO 6.4 km/h 11.9 km/h 52.1% 0.0 mm
03:19 20.5 °C 10.3 °C 1015.0 hPa SO 6.5 km/h 11.3 km/h 52% 0.0 mm
03:24 20.5 °C 10.4 °C 1014.9 hPa SO 6.9 km/h 11.1 km/h 52.3% 0.0 mm
03:29 20.4 °C 10.5 °C 1014.9 hPa SSO 6.9 km/h 11.3 km/h 53% 0.0 mm
03:34 20.4 °C 10.5 °C 1014.9 hPa SSO 6.5 km/h 9.7 km/h 53% 0.0 mm
03:39 20.4 °C 10.5 °C 1014.8 hPa SSO 6.4 km/h 10 km/h 53% 0.0 mm
03:44 20.4 °C 10.8 °C 1014.8 hPa SSO 5.8 km/h 11.1 km/h 54% 0.0 mm
03:49 20.4 °C 10.8 °C 1014.8 hPa SSO 6 km/h 11.3 km/h 54% 0.0 mm
03:54 20.4 °C 11 °C 1014.8 hPa SSO 7.6 km/h 11.3 km/h 54.8% 0.0 mm
03:59 20.4 °C 11.3 °C 1014.8 hPa SSO 7.6 km/h 11.3 km/h 56% 0.0 mm
04:04 20.4 °C 11.5 °C 1014.9 hPa SO 7.6 km/h 11.3 km/h 56.7% 0.0 mm
04:09 20.4 °C 12.1 °C 1014.9 hPa SO 7.4 km/h 10 km/h 59.1% 0.0 mm
04:14 20.3 °C 12.5 °C 1014.9 hPa SSO 6.5 km/h 11.1 km/h 60.8% 0.0 mm
04:19 20.2 °C 12.5 °C 1014.9 hPa SSO 6.6 km/h 13 km/h 61.2% 0.0 mm
04:24 20.2 °C 12.4 °C 1014.8 hPa SO 7.6 km/h 12.9 km/h 60.7% 0.0 mm
04:29 20.2 °C 12 °C 1014.8 hPa SSO 7.4 km/h 11.1 km/h 59% 0.0 mm
04:34 20.3 °C 11.2 °C 1014.8 hPa SSO 6.5 km/h 11.3 km/h 55.9% 0.0 mm
04:39 20.5 °C 9.8 °C 1014.7 hPa SO 6.6 km/h 11.9 km/h 50.4% 0.0 mm
04:44 20.7 °C 9.8 °C 1014.7 hPa SSO 7.6 km/h 11.9 km/h 49.9% 0.0 mm
04:49 20.6 °C 9.9 °C 1014.8 hPa SO 7.4 km/h 11.3 km/h 50.3% 0.0 mm
04:54 20.5 °C 9.1 °C 1014.8 hPa SO 5.8 km/h 10 km/h 47.9% 0.0 mm
04:59 20.5 °C 8.9 °C 1014.8 hPa SO 5.9 km/h 11.9 km/h 47.4% 0.0 mm
05:04 20.6 °C 8.7 °C 1014.8 hPa OSO 6.4 km/h 16.7 km/h 46.3% 0.0 mm
05:09 20.7 °C 8.7 °C 1014.8 hPa SO 6.7 km/h 16.1 km/h 46% 0.0 mm
05:14 20.8 °C 9 °C 1014.8 hPa SO 8.4 km/h 14.8 km/h 46.7% 0.0 mm
05:19 20.8 °C 9 °C 1014.9 hPa SO 8.4 km/h 14.5 km/h 46.7% 0.0 mm
05:24 20.7 °C 8 °C 1014.9 hPa OSO 8.4 km/h 18.5 km/h 43.9% 0.0 mm
05:29 20.7 °C 7.5 °C 1014.9 hPa OSO 8.6 km/h 19.3 km/h 42.5% 0.0 mm
05:34 20.8 °C 7.4 °C 1015.0 hPa OSO 10.3 km/h 19.3 km/h 42.1% 0.0 mm
05:39 20.7 °C 7.7 °C 1015.0 hPa OSO 10 km/h 14.5 km/h 43% 0.0 mm
05:44 20.7 °C 8.4 °C 1015.0 hPa SO 7.6 km/h 12.9 km/h 45.3% 0.0 mm
05:49 20.6 °C 10 °C 1015.0 hPa SSO 7.3 km/h 9.7 km/h 50.9% 0.0 mm
05:54 20.3 °C 10.1 °C 1015.0 hPa OSO 5 km/h 10 km/h 52% 0.0 mm
05:59 20.1 °C 9.8 °C 1015.0 hPa SO 5.1 km/h 9.7 km/h 51.4% 0.0 mm
06:04 19.9 °C 10 °C 1015.1 hPa SO 5.8 km/h 9.7 km/h 52.8% 0.0 mm
06:09 19.8 °C 10.6 °C 1015.1 hPa SSO 5.6 km/h 8 km/h 55% 0.0 mm
06:14 19.8 °C 10.3 °C 1015.1 hPa SO 4.7 km/h 9.5 km/h 54.5% 0.0 mm
06:19 19.7 °C 9.5 °C 1015.1 hPa SSO 4.9 km/h 13.7 km/h 51.9% 0.0 mm
06:24 19.6 °C 9.2 °C 1015.1 hPa SO 6.4 km/h 14.5 km/h 51.2% 0.0 mm
06:29 19.6 °C 9.2 °C 1015.1 hPa SO 6.3 km/h 9.7 km/h 51% 0.0 mm
06:34 19.6 °C 9.3 °C 1015.1 hPa OSO 5 km/h 8 km/h 51.4% 0.0 mm
06:39 19.6 °C 9.4 °C 1015.1 hPa OSO 4.9 km/h 8 km/h 52% 0.0 mm
06:44 19.5 °C 9.4 °C 1015.1 hPa SO 3.9 km/h 7.4 km/h 52% 0.0 mm
06:49 19.5 °C 9.5 °C 1015.2 hPa OSO 3.9 km/h 8 km/h 52.2% 0.0 mm
06:54 19.4 °C 9.8 °C 1015.2 hPa OSO 3.9 km/h 8 km/h 53.8% 0.0 mm
06:59 19.3 °C 10 °C 1015.2 hPa OSO 3.8 km/h 8 km/h 54.8% 0.0 mm
07:04 19.2 °C 10.1 °C 1015.3 hPa SO 3.2 km/h 8.7 km/h 55.7% 0.0 mm
07:09 19.1 °C 9.7 °C 1015.3 hPa OSO 3.5 km/h 9.7 km/h 54.5% 0.0 mm
07:14 19.1 °C 9.5 °C 1015.3 hPa OSO 5.8 km/h 13 km/h 53.8% 0.0 mm
07:19 19.1 °C 9.6 °C 1015.3 hPa OSO 5.7 km/h 12.9 km/h 54.1% 0.0 mm
07:24 18.9 °C 9.4 °C 1015.3 hPa SO 5 km/h 9.7 km/h 54% 0.0 mm
07:29 18.9 °C 9.4 °C 1015.3 hPa SO 5 km/h 9.3 km/h 54% 0.0 mm
07:34 18.9 °C 9.4 °C 1015.4 hPa SO 5 km/h 9.7 km/h 54% 0.0 mm
07:39 18.9 °C 9.4 °C 1015.4 hPa OSO 5 km/h 8.4 km/h 54% 0.0 mm
07:44 18.9 °C 9.4 °C 1015.4 hPa SO 5 km/h 11.1 km/h 54% 0.0 mm
07:49 18.8 °C 9.3 °C 1015.5 hPa SO 5.2 km/h 13 km/h 54% 0.0 mm
07:54 18.8 °C 9.3 °C 1015.5 hPa OSO 6.9 km/h 12.9 km/h 53.9% 0.0 mm
07:59 18.8 °C 9 °C 1015.5 hPa SO 6.8 km/h 11.3 km/h 53.1% 0.0 mm
08:04 18.8 °C 9 °C 1015.5 hPa OSO 5.8 km/h 8 km/h 53% 0.0 mm
08:09 18.8 °C 9 °C 1015.5 hPa SO 5.7 km/h 8.4 km/h 53% 0.0 mm
08:14 18.9 °C 8.9 °C 1015.5 hPa SSO 4.7 km/h 8 km/h 52.3% 0.0 mm
08:19 18.9 °C 8.4 °C 1015.6 hPa SSO 4.7 km/h 9.3 km/h 50.5% 0.0 mm
08:24 19.1 °C 8.4 °C 1015.6 hPa SSO 5 km/h 9.7 km/h 50% 0.0 mm
08:29 19.1 °C 8.4 °C 1015.6 hPa SO 4.9 km/h 8 km/h 50% 0.0 mm
08:34 19.2 °C 8.7 °C 1015.8 hPa OSO 4.7 km/h 8 km/h 50.6% 0.0 mm
08:39 19.2 °C 8.9 °C 1015.8 hPa Oeste 4.6 km/h 8 km/h 51.3% 0.0 mm
08:44 19 °C 8.9 °C 1015.8 hPa Oeste 3.9 km/h 10 km/h 52% 0.0 mm
08:49 18.8 °C 8.9 °C 1016.0 hPa Oeste 4.1 km/h 9.7 km/h 52.8% 0.0 mm
08:54 18.7 °C 8.9 °C 1016.0 hPa Oeste 5.8 km/h 10 km/h 53% 0.0 mm
08:59 18.7 °C 9 °C 1016.0 hPa OSO 5.9 km/h 11.9 km/h 53% 0.0 mm
09:04 18.8 °C 9 °C 1016.1 hPa OSO 6.4 km/h 11.3 km/h 53% 0.0 mm
09:09 18.9 °C 8.9 °C 1016.1 hPa SO 6.2 km/h 9.7 km/h 52.3% 0.0 mm
09:14 19.1 °C 8.9 °C 1016.1 hPa SO 3.9 km/h 8 km/h 51.7% 0.0 mm
09:19 19.2 °C 8.8 °C 1016.1 hPa SO 4 km/h 9.5 km/h 51% 0.0 mm
09:24 19.3 °C 8.9 °C 1016.1 hPa OSO 5 km/h 9.7 km/h 51% 0.0 mm
09:29 19.5 °C 9 °C 1016.1 hPa OSO 5 km/h 8 km/h 50.5% 0.0 mm
09:34 19.7 °C 9 °C 1016.3 hPa OSO 4.7 km/h 8 km/h 49.8% 0.0 mm
09:39 20 °C 9 °C 1016.3 hPa OSO 4.7 km/h 8.4 km/h 49.1% 0.0 mm
09:44 20.2 °C 8.8 °C 1016.3 hPa OSO 4.7 km/h 13 km/h 47.7% 0.0 mm
09:49 20.4 °C 8.6 °C 1016.5 hPa OSO 4.8 km/h 13 km/h 46.6% 0.0 mm
09:54 20.6 °C 8.3 °C 1016.5 hPa OSO 5.8 km/h 13 km/h 45.3% 0.0 mm
09:59 20.6 °C 8.6 °C 1016.5 hPa Oeste 6.2 km/h 12.9 km/h 46% 0.0 mm
10:04 20.7 °C 8.7 °C 1016.6 hPa Oeste 8.4 km/h 11.3 km/h 46% 0.0 mm
10:09 20.7 °C 8.7 °C 1016.6 hPa Oeste 8.1 km/h 11.3 km/h 46% 0.0 mm
10:14 20.9 °C 8.8 °C 1016.6 hPa Oeste 6.5 km/h 9.7 km/h 46% 0.0 mm
10:19 21.1 °C 8.7 °C 1016.6 hPa OSO 6.3 km/h 9.5 km/h 44.9% 0.0 mm
10:24 21.3 °C 8.4 °C 1016.5 hPa Oeste 5 km/h 10.3 km/h 43.5% 0.0 mm
10:29 21.6 °C 8.2 °C 1016.5 hPa Oeste 5.2 km/h 11.9 km/h 42.3% 0.0 mm
10:34 21.7 °C 8.5 °C 1016.5 hPa Oeste 6.9 km/h 11.9 km/h 42.6% 0.0 mm
10:39 21.8 °C 8.4 °C 1016.5 hPa OSO 6.9 km/h 11.9 km/h 42% 0.0 mm
10:44 22 °C 8.5 °C 1016.5 hPa Oeste 6.9 km/h 11.3 km/h 42.1% 0.0 mm
10:49 22.2 °C 8.8 °C 1016.6 hPa SO 6.7 km/h 9.7 km/h 42.4% 0.0 mm
10:54 22.4 °C 8.7 °C 1016.6 hPa OSO 5 km/h 13 km/h 41.4% 0.0 mm
10:59 22.5 °C 8.6 °C 1016.6 hPa OSO 5.2 km/h 12.9 km/h 41% 0.0 mm
11:04 22.7 °C 8.8 °C 1016.6 hPa SSO 6.4 km/h 14 km/h 41% 0.0 mm
11:09 22.8 °C 8.6 °C 1016.6 hPa SO 6.6 km/h 14.8 km/h 40.3% 0.0 mm
11:14 22.8 °C 8.8 °C 1016.6 hPa SO 7.6 km/h 14.5 km/h 40.8% 0.0 mm
11:19 23 °C 9.1 °C 1016.7 hPa SSO 7.4 km/h 11.3 km/h 41.3% 0.0 mm
11:24 23.3 °C 8.6 °C 1016.7 hPa SSO 6.5 km/h 14.8 km/h 39.2% 0.0 mm
11:29 23.4 °C 8.5 °C 1016.7 hPa SSO 6.7 km/h 14.5 km/h 38.5% 0.0 mm
11:34 23.5 °C 8.9 °C 1016.7 hPa SO 8.4 km/h 13 km/h 39.3% 0.0 mm
11:39 23.7 °C 9 °C 1016.7 hPa OSO 8.2 km/h 13 km/h 39% 0.0 mm
11:44 23.8 °C 9 °C 1016.7 hPa OSO 6.9 km/h 12.9 km/h 39% 0.0 mm
11:49 23.9 °C 9.2 °C 1016.7 hPa OSO 6.9 km/h 12.2 km/h 39.2% 0.0 mm
11:54 24.1 °C 9.2 °C 1016.6 hPa OSO 6.5 km/h 16.7 km/h 38.7% 0.0 mm
11:59 24.2 °C 9.1 °C 1016.6 hPa OSO 6.9 km/h 16.1 km/h 38.4% 0.0 mm
12:04 24.3 °C 9.3 °C 1016.6 hPa SO 9.5 km/h 15.6 km/h 38.6% 0.0 mm
12:09 24.6 °C 9 °C 1016.5 hPa SO 9.4 km/h 16.7 km/h 37.2% 0.0 mm
12:14 24.8 °C 9.1 °C 1016.4 hPa SO 8.4 km/h 19.8 km/h 37% 0.0 mm
12:19 24.8 °C 9.1 °C 1016.4 hPa SO 8.5 km/h 20.9 km/h 37.1% 0.0 mm
12:24 24.9 °C 9.2 °C 1016.4 hPa OSO 10 km/h 16.7 km/h 36.9% 0.0 mm
12:29 25.1 °C 9.3 °C 1016.4 hPa OSO 10 km/h 20.1 km/h 36.7% 0.0 mm
12:34 25.4 °C 8.4 °C 1016.4 hPa Oeste 10 km/h 22.2 km/h 34.1% 0.0 mm
12:39 25.6 °C 8.2 °C 1016.1 hPa Oeste 10.3 km/h 22.5 km/h 33.3% 0.0 mm
12:44 25.7 °C 8.2 °C 1016.0 hPa ONO 13 km/h 22.5 km/h 33% 0.0 mm
12:49 25.7 °C 8.2 °C 1016.0 hPa Oeste 12.8 km/h 22 km/h 33% 0.0 mm
12:54 25.8 °C 8.5 °C 1016.0 hPa Oeste 11.1 km/h 22.5 km/h 33.3% 0.0 mm
12:59 26.1 °C 8.6 °C 1015.9 hPa Oeste 10.9 km/h 22.5 km/h 33.2% 0.0 mm
13:04 26.1 °C 8.4 °C 1015.9 hPa ONO 10 km/h 22.2 km/h 32.7% 0.0 mm
13:09 26.3 °C 8.3 °C 1015.9 hPa NO 10.4 km/h 27.8 km/h 32% 0.0 mm
13:14 26.3 °C 8.1 °C 1015.8 hPa NO 14 km/h 29.8 km/h 31.6% 0.0 mm
13:19 26.3 °C 8.1 °C 1015.8 hPa NO 14.1 km/h 30.6 km/h 31.5% 0.0 mm
13:24 26.5 °C 8.2 °C 1015.7 hPa ONO 14.8 km/h 25.9 km/h 31.6% 0.0 mm
13:29 26.6 °C 8.2 °C 1015.6 hPa ONO 14.7 km/h 27.4 km/h 31.3% 0.0 mm
13:34 26.6 °C 8.1 °C 1015.6 hPa ONO 14 km/h 28.2 km/h 31% 0.0 mm
13:39 26.6 °C 8.2 °C 1015.5 hPa ONO 14.3 km/h 28.2 km/h 31.4% 0.0 mm
13:44 26.7 °C 8.3 °C 1015.5 hPa ONO 16.1 km/h 27.4 km/h 31.3% 0.0 mm
13:49 26.9 °C 8.3 °C 1015.5 hPa ONO 15.9 km/h 27.4 km/h 31% 0.0 mm
13:54 27.1 °C 8.4 °C 1015.4 hPa ONO 14 km/h 27.8 km/h 30.8% 0.0 mm
13:59 27.2 °C 8.4 °C 1015.3 hPa NO 14 km/h 22.5 km/h 30.6% 0.0 mm
14:04 27.3 °C 8.5 °C 1015.3 hPa NO 14 km/h 25.6 km/h 30.5% 0.0 mm
14:09 27.6 °C 8.5 °C 1015.2 hPa NO 13.8 km/h 25.9 km/h 30.2% 0.0 mm
14:14 27.6 °C 8.5 °C 1015.1 hPa NO 12.2 km/h 25.1 km/h 30% 0.0 mm
14:19 27.7 °C 8.3 °C 1015.1 hPa ONO 12.5 km/h 28.2 km/h 29.5% 0.0 mm
14:24 27.8 °C 8.3 °C 1015.0 hPa NO 14.8 km/h 27.8 km/h 29.2% 0.0 mm
14:29 28 °C 8.3 °C 1014.9 hPa ONO 14.7 km/h 27.8 km/h 29% 0.0 mm
14:34 28.2 °C 8.1 °C 1014.9 hPa ONO 14 km/h 31.7 km/h 28.4% 0.0 mm
14:39 28.2 °C 8 °C 1014.8 hPa ONO 14.3 km/h 32.2 km/h 28% 0.0 mm
14:44 28.2 °C 8 °C 1014.8 hPa NO 16.1 km/h 31.7 km/h 28% 0.0 mm
14:49 28.3 °C 8.1 °C 1014.8 hPa NO 16 km/h 32.2 km/h 28.1% 0.0 mm
14:54 28.5 °C 8.2 °C 1014.6 hPa ONO 15.6 km/h 32.2 km/h 28% 0.0 mm
14:59 28.6 °C 8 °C 1014.5 hPa Oeste 15.3 km/h 27.8 km/h 27.5% 0.0 mm
15:04 28.6 °C 7.8 °C 1014.5 hPa ONO 13.7 km/h 27.4 km/h 27% 0.0 mm
15:09 28.7 °C 7.8 °C 1014.4 hPa ONO 13.9 km/h 28.6 km/h 27% 0.0 mm
15:14 28.8 °C 7.9 °C 1014.3 hPa ONO 15.6 km/h 29.6 km/h 27% 0.0 mm
15:19 28.8 °C 7.9 °C 1014.3 hPa ONO 15.3 km/h 29 km/h 27% 0.0 mm
15:24 29 °C 7.8 °C 1014.2 hPa ONO 13.7 km/h 27.8 km/h 26.5% 0.0 mm
15:29 29.1 °C 7.6 °C 1014.1 hPa ONO 13.7 km/h 25.7 km/h 26% 0.0 mm
15:34 29.1 °C 7.6 °C 1014.1 hPa ONO 13.7 km/h 27.8 km/h 26% 0.0 mm
15:39 29.1 °C 7.7 °C 1014.0 hPa Oeste 13.7 km/h 27.4 km/h 26.1% 0.0 mm
15:44 29.2 °C 7.6 °C 1014.0 hPa ONO 14 km/h 25.7 km/h 25.7% 0.0 mm
15:49 29.3 °C 7.5 °C 1014.0 hPa ONO 13.6 km/h 22.2 km/h 25.5% 0.0 mm
15:54 29.4 °C 7.3 °C 1014.0 hPa Oeste 10.3 km/h 22.5 km/h 25% 0.0 mm
15:59 29.4 °C 7.3 °C 1014.0 hPa ONO 10.6 km/h 22.2 km/h 25% 0.0 mm
16:04 29.3 °C 7.4 °C 1014.0 hPa Oeste 11.9 km/h 22.5 km/h 25.3% 0.0 mm
16:09 29.4 °C 7.3 °C 1013.9 hPa ONO 11.7 km/h 24.1 km/h 25% 0.0 mm
16:14 29.7 °C 7.5 °C 1013.9 hPa Oeste 10 km/h 24.1 km/h 25% 0.0 mm
16:19 29.8 °C 7.7 °C 1013.9 hPa OSO 9.8 km/h 21.7 km/h 25% 0.0 mm
16:24 30 °C 7.8 °C 1013.8 hPa ONO 8.7 km/h 22.5 km/h 25.1% 0.0 mm
16:29 29.9 °C 7.9 °C 1013.8 hPa ONO 9.1 km/h 22.5 km/h 25.4% 0.0 mm
16:34 30 °C 8 °C 1013.8 hPa OSO 11.9 km/h 19.3 km/h 25.2% 0.0 mm
16:39 30.2 °C 8 °C 1013.7 hPa OSO 11.6 km/h 19.3 km/h 25% 0.0 mm
16:44 30.2 °C 7.7 °C 1013.6 hPa NO 9.5 km/h 17.2 km/h 24.5% 0.0 mm
16:49 30.2 °C 7.8 °C 1013.6 hPa ONO 9.4 km/h 17.7 km/h 24.6% 0.0 mm
16:54 30.2 °C 8 °C 1013.5 hPa ONO 8.7 km/h 20.4 km/h 25% 0.0 mm
16:59 30.3 °C 8 °C 1013.4 hPa Oeste 9.1 km/h 24.1 km/h 24.8% 0.0 mm
17:04 30.4 °C 7.7 °C 1013.4 hPa Oeste 11.1 km/h 25.9 km/h 24.3% 0.0 mm
17:09 30.4 °C 7.7 °C 1013.4 hPa Oeste 11.2 km/h 25.7 km/h 24.2% 0.0 mm
17:14 30.4 °C 7.5 °C 1013.4 hPa ONO 11.9 km/h 19.3 km/h 24% 0.0 mm
17:19 30.4 °C 7.6 °C 1013.4 hPa Oeste 11.8 km/h 20.4 km/h 24.1% 0.0 mm
17:24 30.4 °C 7.6 °C 1013.3 hPa ONO 11.1 km/h 20.9 km/h 24% 0.0 mm
17:29 30.5 °C 8 °C 1013.2 hPa Oeste 10.9 km/h 20.9 km/h 24.6% 0.0 mm
17:34 30.7 °C 7.9 °C 1013.2 hPa Oeste 9.5 km/h 16.1 km/h 24.1% 0.0 mm
17:39 30.8 °C 7.7 °C 1013.1 hPa OSO 9.1 km/h 14.5 km/h 23.7% 0.0 mm
17:44 31 °C 7.7 °C 1013.0 hPa OSO 6.5 km/h 11.3 km/h 23.5% 0.0 mm
17:49 31 °C 7.5 °C 1013.0 hPa SO 6.5 km/h 14.8 km/h 23% 0.0 mm
17:54 30.9 °C 7.7 °C 1012.9 hPa SO 6.9 km/h 14.5 km/h 23.6% 0.0 mm
17:59 30.9 °C 7.7 °C 1012.9 hPa OSO 6.7 km/h 11.3 km/h 23.5% 0.0 mm
18:04 31 °C 8.1 °C 1012.9 hPa Sur 5.8 km/h 13 km/h 24% 0.0 mm
18:09 30.8 °C 8 °C 1012.9 hPa SSE 6.1 km/h 13 km/h 24.1% 0.0 mm
18:14 30.6 °C 8.3 °C 1012.9 hPa SE 8.4 km/h 13 km/h 25% 0.0 mm
18:19 30.3 °C 8.3 °C 1012.9 hPa SE 8.4 km/h 13 km/h 25.3% 0.0 mm
18:24 30.3 °C 8.7 °C 1012.9 hPa SSE 8.4 km/h 12.9 km/h 26% 0.0 mm
18:29 30.3 °C 8.7 °C 1012.9 hPa SSO 8.3 km/h 14.8 km/h 26% 0.0 mm
18:34 30 °C 9.9 °C 1013.0 hPa Sur 7.6 km/h 23.3 km/h 28.7% 0.0 mm
18:39 29.4 °C 10.3 °C 1013.0 hPa Sur 8.2 km/h 24.1 km/h 30.6% 0.0 mm
18:44 29 °C 10.5 °C 1013.0 hPa Sur 13 km/h 22.5 km/h 31.6% 0.0 mm
18:49 28.9 °C 10.5 °C 1013.0 hPa SSO 13 km/h 20.9 km/h 32% 0.0 mm
18:54 28.8 °C 10.4 °C 1013.0 hPa SSO 13 km/h 25.9 km/h 32% 0.0 mm
18:59 28.6 °C 10.2 °C 1013.0 hPa SSO 13.2 km/h 25.9 km/h 32% 0.0 mm
19:04 28.3 °C 10.1 °C 1013.0 hPa SSO 14 km/h 25.7 km/h 32% 0.0 mm
19:09 28.3 °C 10.4 °C 1013.0 hPa SO 13.8 km/h 20.9 km/h 32.9% 0.0 mm
19:14 28.2 °C 10.6 °C 1013.0 hPa SSO 12.2 km/h 22.2 km/h 33.6% 0.0 mm
19:19 28.1 °C 10.8 °C 1013.2 hPa SSO 11.9 km/h 22.5 km/h 34% 0.0 mm
19:24 28.1 °C 10.8 °C 1013.2 hPa Sur 9.5 km/h 14.5 km/h 34.1% 0.0 mm
19:29 28 °C 11 °C 1013.2 hPa Sur 9.1 km/h 11.9 km/h 34.7% 0.0 mm
19:34 27.8 °C 10.9 °C 1013.4 hPa SSO 6.5 km/h 11.3 km/h 34.9% 0.0 mm
19:39 27.7 °C 10.8 °C 1013.4 hPa SO 6.3 km/h 9.7 km/h 35% 0.0 mm
19:44 27.6 °C 10.9 °C 1013.4 hPa SO 4.7 km/h 5.8 km/h 35.4% 0.0 mm
19:49 27.4 °C 10.9 °C 1013.7 hPa NNO 4.5 km/h 7.4 km/h 35.7% 0.0 mm
19:54 27.2 °C 10.9 °C 1013.7 hPa NNO 3.2 km/h 9.5 km/h 36.1% 0.0 mm
19:59 26.8 °C 11 °C 1013.7 hPa ONO 3.4 km/h 9.7 km/h 37.2% 0.0 mm
20:04 26.6 °C 11.1 °C 1013.8 hPa Oeste 4.7 km/h 10 km/h 38% 0.0 mm
20:09 26.3 °C 11.3 °C 1013.8 hPa Oeste 4.5 km/h 9.7 km/h 39% 0.0 mm
20:14 26.2 °C 11.2 °C 1013.8 hPa ONO 3.2 km/h 8 km/h 39% 0.0 mm
20:19 26.2 °C 11.4 °C 1013.9 hPa ONO 3.3 km/h 7.6 km/h 39.7% 0.0 mm
20:24 26.1 °C 11.5 °C 1013.9 hPa NO 3.9 km/h 8 km/h 40% 0.0 mm
20:29 25.9 °C 11.5 °C 1013.9 hPa North 3.9 km/h 8 km/h 40.6% 0.0 mm
20:34 25.6 °C 12.2 °C 1014.2 hPa NNE 4.7 km/h 11.9 km/h 43.1% 0.0 mm
20:39 25.2 °C 12.8 °C 1014.2 hPa NNE 5 km/h 13 km/h 46% 0.0 mm
20:44 24.8 °C 13.7 °C 1014.2 hPa North 7.5 km/h 12.9 km/h 50.1% 0.0 mm
20:49 24.5 °C 14.1 °C 1014.5 hPa NO 7.5 km/h 13.7 km/h 52.6% 0.0 mm
20:54 24.1 °C 14.9 °C 1014.5 hPa NNE 6.9 km/h 17.2 km/h 56.6% 0.0 mm
20:59 23.8 °C 15.2 °C 1014.5 hPa NNE 7.3 km/h 17.7 km/h 58.4% 0.0 mm
21:04 23.7 °C 15.4 °C 1014.6 hPa NNE 9.5 km/h 11.9 km/h 59.7% 0.0 mm
21:09 23.6 °C 15.4 °C 1014.6 hPa NE 9 km/h 11.3 km/h 60% 0.0 mm
21:14 23.6 °C 15.4 °C 1014.6 hPa NE 5 km/h 13.7 km/h 60.2% 0.0 mm
21:19 23.4 °C 15.5 °C 1014.7 hPa NE 5.1 km/h 14.5 km/h 61% 0.0 mm
21:24 23.4 °C 15.5 °C 1014.7 hPa NNE 6.4 km/h 9.7 km/h 61.3% 0.0 mm
21:29 23.2 °C 15.6 °C 1014.7 hPa NNE 6.3 km/h 8.4 km/h 62% 0.0 mm
21:34 23.2 °C 15.7 °C 1014.8 hPa NNE 5 km/h 8 km/h 62.9% 0.0 mm
21:39 23 °C 15.7 °C 1014.8 hPa North 4.9 km/h 8.7 km/h 63.5% 0.0 mm
21:44 22.8 °C 15.7 °C 1014.8 hPa North 4.7 km/h 9.7 km/h 64% 0.0 mm
21:49 22.7 °C 15.8 °C 1014.9 hPa North 4.7 km/h 9.7 km/h 64.9% 0.0 mm
21:54 22.7 °C 15.7 °C 1014.9 hPa NE 4.7 km/h 10 km/h 65% 0.0 mm
21:59 22.6 °C 15.7 °C 1014.9 hPa ENE 4.7 km/h 9.7 km/h 65.3% 0.0 mm
22:04 22.5 °C 15.8 °C 1015.1 hPa NNE 5 km/h 8 km/h 66% 0.0 mm
22:09 22.4 °C 15.7 °C 1015.1 hPa North 4.9 km/h 8 km/h 66% 0.0 mm
22:14 22.3 °C 15.7 °C 1015.1 hPa North 3.9 km/h 8 km/h 66% 0.0 mm
22:19 22.3 °C 15.7 °C 1015.2 hPa NNO 3.7 km/h 7.4 km/h 66.1% 0.0 mm
22:24 22.2 °C 15.8 °C 1015.2 hPa North 2.9 km/h 9.3 km/h 67% 0.0 mm
22:29 22.2 °C 15.7 °C 1015.2 hPa NNE 3.1 km/h 9.7 km/h 67% 0.0 mm
22:34 22.1 °C 15.7 °C 1015.2 hPa NE 4.7 km/h 8.4 km/h 67% 0.0 mm
22:39 22 °C 15.6 °C 1015.1 hPa NE 4.5 km/h 8 km/h 67% 0.0 mm
22:44 21.9 °C 15.5 °C 1015.1 hPa NE 3.9 km/h 8 km/h 67% 0.0 mm
22:49 21.9 °C 15.5 °C 1015.3 hPa ESE 3.7 km/h 5.8 km/h 66.8% 0.0 mm
22:54 21.9 °C 15.3 °C 1015.3 hPa ESE 2.3 km/h 6.4 km/h 66.1% 0.0 mm
22:59 21.9 °C 15.5 °C 1015.3 hPa North 2.4 km/h 5.6 km/h 67% 0.0 mm
23:04 21.9 °C 15.5 °C 1015.3 hPa NO 2.9 km/h 4.8 km/h 67% 0.0 mm
23:09 21.8 °C 15.5 °C 1015.3 hPa NNO 2.9 km/h 7.4 km/h 67.3% 0.0 mm
23:14 21.7 °C 15.3 °C 1015.3 hPa Este 2.9 km/h 8.4 km/h 66.7% 0.0 mm
23:19 21.6 °C 14.6 °C 1015.4 hPa ESE 3.1 km/h 8 km/h 64.4% 0.0 mm
23:24 21.4 °C 14.1 °C 1015.4 hPa ESE 4.7 km/h 6.4 km/h 63% 0.0 mm
23:29 21.4 °C 14 °C 1015.4 hPa ESE 4.4 km/h 5.8 km/h 62.8% 0.0 mm
23:34 21.4 °C 14.1 °C 1015.4 hPa SSE 2.3 km/h 7.4 km/h 63.1% 0.0 mm
23:39 21.4 °C 14.6 °C 1015.4 hPa Sur 2.5 km/h 8.4 km/h 64.9% 0.0 mm
23:44 21.5 °C 14.9 °C 1015.4 hPa Sur 4.7 km/h 9.3 km/h 66% 0.0 mm
23:49 21.5 °C 14.7 °C 1015.4 hPa Sur 4.7 km/h 9.7 km/h 65.2% 0.0 mm
23:54 21.6 °C 14.7 °C 1015.4 hPa OSO 5 km/h 8 km/h 65% 0.0 mm
23:59 21.6 °C 14.7 °C 1015.4 hPa SO 4.8 km/h 8 km/h 65% 0.0 mm
Murcia-Puente Tocinos, Espa?a
Compliments of Weather Underground - 3.25 mb

La estación de MeteoMurcia.com, publica sus datos en los siguientes proyectos:

Weather Underground PWS IMURCIAP2 Meteoclimatic www.awekas.at

W3Counter
Web Analytics